Time;durP1;ratioP1;P1;durP2;ratioP2;P2;SDS_P1;SDS_P2;PMS_P1;PMS_P2;Temp;Humidity;BMP_temperature;BMP_pressure;BME280_temperature;BME280_humidity;BME280_pressure;Samples;Min_cycle;Max_cycle;Signal;HPM_P1;HPM_P2
2023/10/01 00:00:46;;;;;;;11.35;3.60;;;14.90;99.90;;;;;;4840943;29;20059;-81
2023/10/01 00:03:16;;;;;;;12.05;3.35;;;14.90;99.90;;;;;;4798882;29;20050;-78
2023/10/01 00:05:42;;;;;;;11.68;3.25;;;14.90;99.90;;;;;;4812925;29;20042;-81
2023/10/01 00:08:14;;;;;;;9.63;3.15;;;14.90;99.90;;;;;;4840489;29;20381;-82
2023/10/01 00:10:43;;;;;;;11.23;3.35;;;14.90;99.90;;;;;;4826062;29;20093;-81
2023/10/01 00:13:08;;;;;;;9.80;3.15;;;14.90;99.90;;;;;;4794674;29;20057;-81
2023/10/01 00:15:35;;;;;;;12.20;2.92;;;14.90;99.90;;;;;;4824819;29;20055;-80
2023/10/01 00:18:00;;;;;;;10.13;3.10;;;14.90;99.90;;;;;;4843371;29;20038;-80
2023/10/01 00:20:27;;;;;;;9.15;3.60;;;14.90;99.90;;;;;;4828781;29;20185;-79
2023/10/01 00:22:59;;;;;;;12.27;3.45;;;14.80;99.90;;;;;;4825439;29;20137;-80
2023/10/01 00:25:26;;;;;;;13.48;3.75;;;14.90;99.90;;;;;;4825402;29;20511;-80
2023/10/01 00:27:52;;;;;;;12.52;4.40;;;14.90;99.90;;;;;;4811276;29;20050;-80
2023/10/01 00:30:18;;;;;;;9.93;3.72;;;14.80;99.90;;;;;;4845874;29;20042;-80
2023/10/01 00:32:44;;;;;;;10.13;4.20;;;14.80;99.90;;;;;;4825063;29;20165;-80
2023/10/01 00:35:11;;;;;;;12.25;4.32;;;14.80;99.90;;;;;;4813476;29;20050;-80
2023/10/01 00:37:38;;;;;;;14.00;4.07;;;14.80;99.90;;;;;;4827678;29;20063;-80
2023/10/01 00:40:08;;;;;;;9.45;4.38;;;14.80;99.90;;;;;;4809333;29;20043;-81
2023/10/01 00:42:34;;;;;;;9.18;3.83;;;14.80;99.90;;;;;;4809295;29;20080;-80
2023/10/01 00:45:02;;;;;;;12.23;4.80;;;14.80;99.90;;;;;;4826441;29;20050;-80
2023/10/01 00:47:30;;;;;;;14.80;5.25;;;14.80;99.90;;;;;;4813004;29;20058;-80
2023/10/01 00:49:57;;;;;;;10.88;3.80;;;14.80;99.90;;;;;;4825570;29;20157;-80
2023/10/01 00:52:23;;;;;;;7.05;3.70;;;14.80;99.90;;;;;;4825272;29;20145;-81
2023/10/01 00:54:51;;;;;;;10.73;4.00;;;14.80;99.90;;;;;;4825470;29;20054;-81
2023/10/01 00:57:17;;;;;;;13.90;4.45;;;14.80;99.90;;;;;;4842578;29;20054;-81
2023/10/01 00:59:44;;;;;;;12.57;3.67;;;15.10;99.90;;;;;;4827591;29;20472;-81
2023/10/01 01:02:15;;;;;;;15.23;4.32;;;14.80;99.90;;;;;;4825193;29;20055;-80
2023/10/01 01:04:45;;;;;;;11.25;4.15;;;14.80;99.90;;;;;;4842936;29;20411;-80
2023/10/01 01:07:23;;;;;;;9.88;4.05;;;14.80;99.90;;;;;;4846831;29;20050;-80
2023/10/01 01:09:50;;;;;;;14.55;5.10;;;14.70;99.90;;;;;;4841663;29;20069;-80
2023/10/01 01:12:15;;;;;;;13.38;3.97;;;14.70;99.90;;;;;;4823714;29;20090;-80
2023/10/01 01:14:45;;;;;;;14.00;4.68;;;14.70;99.90;;;;;;4839025;29;20090;-81
2023/10/01 01:17:11;;;;;;;17.25;4.97;;;14.70;99.90;;;;;;4842842;29;20403;-81
2023/10/01 01:19:38;;;;;;;15.80;4.88;;;14.70;99.90;;;;;;4826524;29;20054;-80
2023/10/01 01:22:04;;;;;;;8.43;4.00;;;14.70;99.90;;;;;;4839854;29;20453;-81
2023/10/01 01:24:30;;;;;;;10.32;3.88;;;14.70;99.90;;;;;;4839790;29;20462;-81
2023/10/01 01:27:00;;;;;;;10.45;4.60;;;14.70;99.90;;;;;;4810138;29;20047;-81
2023/10/01 01:29:33;;;;;;;13.63;4.55;;;14.70;99.90;;;;;;4815901;29;20146;-81
2023/10/01 01:32:15;;;;;;;14.13;4.83;;;13.50;99.90;;;;;;4825353;29;20051;-80
2023/10/01 01:34:45;;;;;;;10.23;4.43;;;14.70;99.90;;;;;;4812235;29;20133;-81
2023/10/01 01:37:36;;;;;;;12.13;4.30;;;14.70;99.90;;;;;;4812982;29;20075;-80
2023/10/01 01:40:09;;;;;;;9.45;4.03;;;14.70;99.90;;;;;;4793603;29;20055;-80
2023/10/01 01:42:35;;;;;;;7.13;4.50;;;14.60;99.90;;;;;;4839131;29;20050;-80
2023/10/01 01:45:18;;;;;;;15.27;5.63;;;14.70;99.90;;;;;;4823837;29;20049;-80
2023/10/01 01:47:44;;;;;;;12.02;4.88;;;14.70;99.90;;;;;;4823506;29;20145;-80
2023/10/01 01:50:18;;;;;;;13.77;6.00;;;14.60;99.90;;;;;;4796387;29;20547;-80
2023/10/01 01:52:52;;;;;;;19.83;6.07;;;14.70;99.90;;;;;;4811166;29;20058;-80
2023/10/01 01:55:28;;;;;;;16.48;5.60;;;14.60;99.90;;;;;;4838493;29;20038;-80
2023/10/01 01:58:10;;;;;;;15.35;5.85;;;14.60;99.90;;;;;;4825064;29;20055;-80
2023/10/01 02:00:47;;;;;;;16.95;5.70;;;14.60;99.90;;;;;;4811281;29;20194;-80
2023/10/01 02:03:14;;;;;;;10.65;5.40;;;14.60;99.90;;;;;;4804590;29;20054;-80
2023/10/01 02:05:47;;;;;;;12.50;5.90;;;14.60;99.90;;;;;;4812020;29;20047;-80
2023/10/01 02:08:23;;;;;;;15.25;6.10;;;14.60;99.90;;;;;;4811767;29;20058;-80
2023/10/01 02:10:54;;;;;;;10.15;6.50;;;14.60;99.90;;;;;;4809926;29;20043;-80
2023/10/01 02:13:24;;;;;;;11.50;6.25;;;14.70;99.90;;;;;;4823142;29;20242;-79
2023/10/01 02:15:51;;;;;;;12.00;6.60;;;14.60;99.90;;;;;;4837575;29;20042;-80
2023/10/01 02:18:17;;;;;;;17.75;7.13;;;14.90;99.90;;;;;;4823355;29;20047;-81
2023/10/01 02:20:56;;;;;;;15.48;7.07;;;14.20;99.90;;;;;;4838029;29;20098;-81
2023/10/01 02:23:33;;;;;;;11.27;6.18;;;14.60;99.90;;;;;;4838113;29;20042;-80
2023/10/01 02:26:00;;;;;;;13.10;6.03;;;14.60;99.90;;;;;;4825230;29;20105;-80
2023/10/01 02:28:27;;;;;;;19.20;6.55;;;14.90;99.90;;;;;;4811014;29;20046;-81
2023/10/01 02:31:00;;;;;;;18.02;6.95;;;14.50;99.90;;;;;;4794174;29;20163;-80
2023/10/01 02:33:55;;;;;;;12.18;6.78;;;14.60;99.90;;;;;;4838462;29;20150;-81
2023/10/01 02:36:13;;;;;;;14.95;7.30;;;14.50;99.90;;;;;;4812624;29;20068;-80
2023/10/01 02:38:45;;;;;;;16.10;8.02;;;14.50;99.90;;;;;;4841509;29;20065;-80
2023/10/01 02:41:15;;;;;;;15.88;6.47;;;14.50;99.90;;;;;;4819114;29;20133;-80
2023/10/01 02:43:41;;;;;;;15.73;7.25;;;14.60;99.90;;;;;;4811171;29;20086;-80
2023/10/01 02:46:15;;;;;;;16.90;7.70;;;14.60;99.90;;;;;;4841872;29;20071;-80
2023/10/01 02:48:42;;;;;;;21.05;7.75;;;14.60;99.90;;;;;;4814141;29;20088;-79
2023/10/01 02:51:14;;;;;;;19.83;8.32;;;14.60;99.90;;;;;;4796285;29;20046;-80
2023/10/01 02:54:06;;;;;;;18.40;8.13;;;14.50;99.90;;;;;;4838210;29;20058;-79
2023/10/01 02:56:33;;;;;;;14.50;7.80;;;14.60;99.90;;;;;;4813717;29;20043;-80
2023/10/01 02:59:09;;;;;;;15.90;7.50;;;14.60;99.90;;;;;;4794040;29;20058;-81
2023/10/01 03:01:39;;;;;;;14.90;7.55;;;14.60;99.90;;;;;;4823001;29;20084;-79
2023/10/01 03:04:15;;;;;;;13.40;7.13;;;15.70;99.90;;;;;;4824829;29;20106;-80
2023/10/01 03:06:52;;;;;;;18.98;8.00;;;14.60;99.90;;;;;;4841369;29;20051;-80
2023/10/01 03:09:34;;;;;;;17.75;8.05;;;14.60;99.90;;;;;;4803380;29;20055;-79
2023/10/01 03:17:38;;;;;;;16.73;7.80;;;14.60;99.90;;;;;;4837501;29;20061;-79
2023/10/01 03:22:53;;;;;;;13.38;7.32;;;14.50;99.90;;;;;;4839934;29;20050;-79
2023/10/01 03:25:20;;;;;;;15.68;7.53;;;14.50;99.90;;;;;;4837610;29;20480;-80
2023/10/01 03:27:45;;;;;;;14.30;8.48;;;14.60;99.90;;;;;;4837750;29;20432;-78
2023/10/01 03:30:23;;;;;;;14.90;7.85;;;14.50;99.90;;;;;;4825770;29;20554;-80
2023/10/01 03:32:49;;;;;;;17.67;7.50;;;14.50;99.90;;;;;;4794398;29;20056;-80
2023/10/01 03:35:20;;;;;;;15.43;8.00;;;14.50;99.90;;;;;;4841343;29;20427;-80
2023/10/01 03:38:08;;;;;;;16.77;7.40;;;15.00;99.90;;;;;;4825777;29;20559;-80
2023/10/01 03:40:36;;;;;;;24.40;8.02;;;14.50;99.90;;;;;;4812873;29;20415;-80
2023/10/01 03:43:04;;;;;;;14.15;7.20;;;14.80;99.90;;;;;;4811537;29;20480;-81
2023/10/01 03:47:58;;;;;;;15.50;7.65;;;14.50;99.90;;;;;;4842625;29;20054;-80
2023/10/01 03:50:25;;;;;;;16.35;7.25;;;14.60;99.90;;;;;;4828801;29;20142;-80
2023/10/01 03:52:52;;;;;;;16.75;7.80;;;14.50;99.90;;;;;;4842580;29;20115;-80
2023/10/01 03:55:28;;;;;;;11.50;7.05;;;14.50;99.90;;;;;;4812193;29;20057;-80
2023/10/01 03:58:42;;;;;;;16.70;7.38;;;14.60;99.90;;;;;;4826697;29;20424;-80
2023/10/01 04:00:41;;;;;;;14.73;6.53;;;14.50;99.90;;;;;;4839747;29;20142;-80
2023/10/01 04:03:08;;;;;;;14.45;7.07;;;14.60;99.90;;;;;;4841375;29;20133;-80
2023/10/01 04:05:34;;;;;;;13.20;7.30;;;14.50;99.90;;;;;;4826242;29;20058;-80
2023/10/01 04:08:08;;;;;;;17.27;7.47;;;14.50;99.90;;;;;;4826583;29;20062;-80
2023/10/01 04:10:35;;;;;;;14.23;6.85;;;14.60;99.90;;;;;;4798033;29;20094;-80
2023/10/01 04:13:24;;;;;;;14.65;6.60;;;14.60;99.90;;;;;;4826213;29;20531;-80
2023/10/01 04:16:07;;;;;;;12.15;6.85;;;14.60;99.90;;;;;;4840138;29;20051;-80
2023/10/01 04:18:34;;;;;;;12.35;6.80;;;14.50;99.90;;;;;;4813172;29;20065;-79
2023/10/01 04:23:47;;;;;;;14.65;6.70;;;14.60;99.90;;;;;;4810468;29;20047;-78
2023/10/01 04:26:19;;;;;;;10.90;7.03;;;14.50;99.90;;;;;;4825866;29;20050;-80
2023/10/01 04:28:47;;;;;;;14.68;7.03;;;14.60;99.90;;;;;;4824930;29;20155;-78
2023/10/01 04:31:22;;;;;;;14.95;6.85;;;14.60;99.90;;;;;;4826017;29;20050;-81
2023/10/01 04:33:52;;;;;;;9.65;6.97;;;14.60;99.90;;;;;;4814621;29;20051;-80
2023/10/01 04:36:20;;;;;;;14.07;7.10;;;14.60;99.90;;;;;;4800742;29;20050;-81
2023/10/01 04:38:59;;;;;;;12.35;6.05;;;14.60;99.90;;;;;;4797800;29;20081;-80
2023/10/01 04:41:25;;;;;;;14.57;6.60;;;14.60;99.90;;;;;;4808429;29;20420;-80
2023/10/01 04:44:06;;;;;;;10.95;6.65;;;14.50;99.90;;;;;;4794046;29;20057;-81
2023/10/01 04:46:37;;;;;;;14.60;7.53;;;14.60;99.90;;;;;;4813387;29;20042;-81
2023/10/01 04:49:08;;;;;;;13.70;6.60;;;14.50;99.90;;;;;;4810087;29;20121;-81
2023/10/01 04:51:47;;;;;;;14.10;7.35;;;14.50;99.90;;;;;;4824811;29;20058;-80
2023/10/01 04:54:17;;;;;;;15.15;6.70;;;14.60;99.90;;;;;;4843512;29;20070;-81
2023/10/01 04:56:45;;;;;;;17.17;6.90;;;14.60;99.90;;;;;;4812481;29;20079;-80
2023/10/01 04:59:11;;;;;;;11.65;7.45;;;14.60;99.90;;;;;;4840234;29;20047;-80
2023/10/01 05:01:36;;;;;;;11.73;7.05;;;15.50;99.90;;;;;;4810662;29;20042;-80
2023/10/01 05:04:02;;;;;;;10.77;6.85;;;14.60;99.90;;;;;;4825833;29;20047;-80
2023/10/01 05:06:31;;;;;;;10.95;6.72;;;14.60;99.90;;;;;;4828269;29;20456;-80
2023/10/01 05:08:57;;;;;;;10.98;6.72;;;14.80;99.90;;;;;;4841875;29;20051;-80
2023/10/01 05:11:29;;;;;;;11.90;7.13;;;15.10;99.90;;;;;;4823624;29;20043;-80
2023/10/01 05:13:58;;;;;;;10.93;6.72;;;14.60;99.90;;;;;;4824915;29;20133;-80
2023/10/01 05:16:27;;;;;;;16.90;7.45;;;14.60;99.90;;;;;;4812379;29;20046;-81
2023/10/01 05:19:09;;;;;;;12.15;6.45;;;14.60;99.90;;;;;;4796150;29;20066;-81
2023/10/01 05:21:49;;;;;;;13.20;7.32;;;14.60;99.90;;;;;;4839326;29;20491;-81
2023/10/01 05:24:36;;;;;;;12.40;7.65;;;14.70;99.90;;;;;;4804144;29;20054;-81
2023/10/01 05:27:09;;;;;;;11.85;7.28;;;15.00;99.90;;;;;;4827204;29;20496;-82
2023/10/01 05:29:42;;;;;;;12.13;6.63;;;14.60;99.90;;;;;;4842241;29;20053;-81
2023/10/01 05:32:10;;;;;;;13.87;6.20;;;14.70;99.90;;;;;;4808623;29;20460;-81
2023/10/01 05:34:38;;;;;;;14.60;7.22;;;14.60;99.90;;;;;;4823777;29;20162;-81
2023/10/01 05:37:12;;;;;;;14.15;7.07;;;14.60;99.90;;;;;;4841413;29;20089;-81
2023/10/01 05:39:57;;;;;;;12.60;7.80;;;14.60;99.90;;;;;;4796276;29;20048;-80
2023/10/01 05:42:28;;;;;;;17.38;6.88;;;14.60;99.90;;;;;;4819349;29;20380;-81
2023/10/01 05:44:59;;;;;;;16.17;7.55;;;14.50;99.90;;;;;;4819247;29;20061;-81
2023/10/01 05:47:41;;;;;;;14.48;6.68;;;14.50;99.90;;;;;;4811621;29;20057;-81
2023/10/01 05:50:12;;;;;;;14.05;6.80;;;14.50;99.90;;;;;;4809405;29;20066;-81
2023/10/01 05:52:40;;;;;;;13.68;7.40;;;14.50;99.90;;;;;;4838406;29;20162;-81
2023/10/01 05:55:12;;;;;;;13.30;7.53;;;14.90;99.90;;;;;;4825600;29;20122;-81
2023/10/01 05:57:41;;;;;;;17.52;6.60;;;14.50;99.90;;;;;;4797025;29;20179;-81
2023/10/01 06:00:18;;;;;;;14.82;7.50;;;14.30;99.90;;;;;;4839392;29;20081;-81
2023/10/01 06:02:48;;;;;;;9.43;6.55;;;14.20;99.90;;;;;;4830860;29;20101;-81
2023/10/01 06:05:25;;;;;;;13.48;6.25;;;14.40;99.90;;;;;;4823927;29;20057;-81
2023/10/01 06:07:53;;;;;;;12.73;6.57;;;14.40;99.90;;;;;;4808131;29;20073;-81
2023/10/01 06:10:19;;;;;;;14.77;6.40;;;14.50;99.90;;;;;;4827055;29;20042;-81
2023/10/01 06:12:51;;;;;;;14.60;6.07;;;14.50;99.90;;;;;;4841900;29;20122;-80
2023/10/01 06:15:20;;;;;;;11.80;6.88;;;14.50;99.90;;;;;;4804064;29;20061;-81
2023/10/01 06:17:47;;;;;;;12.63;6.80;;;14.50;99.90;;;;;;4813969;29;20101;-81
2023/10/01 06:20:23;;;;;;;12.45;7.22;;;15.10;99.90;;;;;;4847402;29;20403;-81
2023/10/01 06:22:49;;;;;;;13.77;6.43;;;14.50;99.90;;;;;;4841292;29;20526;-80
2023/10/01 06:25:15;;;;;;;9.63;6.40;;;14.50;99.90;;;;;;4823575;29;20082;-80
2023/10/01 06:27:41;;;;;;;14.45;7.18;;;14.50;99.90;;;;;;4823220;29;20101;-81
2023/10/01 06:30:08;;;;;;;15.20;7.35;;;14.50;99.90;;;;;;4825405;29;20042;-80
2023/10/01 06:32:34;;;;;;;11.90;5.90;;;14.50;99.90;;;;;;4812558;29;20089;-81
2023/10/01 06:35:02;;;;;;;14.32;6.97;;;14.50;99.90;;;;;;4809620;29;20088;-81
2023/10/01 06:37:50;;;;;;;14.57;7.25;;;14.50;99.90;;;;;;4808497;29;20059;-81
2023/10/01 06:40:30;;;;;;;13.15;6.70;;;15.60;99.90;;;;;;4842134;29;20137;-81
2023/10/01 06:43:00;;;;;;;17.65;7.20;;;14.50;99.90;;;;;;4839958;29;20054;-81
2023/10/01 06:45:41;;;;;;;20.70;7.97;;;14.50;99.90;;;;;;4838555;29;20039;-81
2023/10/01 06:48:10;;;;;;;18.73;7.72;;;14.50;99.90;;;;;;4825968;29;20137;-80
2023/10/01 06:50:37;;;;;;;18.27;7.55;;;14.50;99.90;;;;;;4841102;29;20125;-80
2023/10/01 06:53:03;;;;;;;15.55;7.13;;;15.10;99.90;;;;;;4794218;29;20049;-81
2023/10/01 06:55:32;;;;;;;16.98;6.82;;;14.60;99.90;;;;;;4807249;29;20215;-80
2023/10/01 06:58:00;;;;;;;13.60;7.57;;;14.50;99.90;;;;;;4824276;29;20054;-80
2023/10/01 07:00:33;;;;;;;14.65;7.90;;;14.60;99.90;;;;;;4813946;29;20054;-81
2023/10/01 07:03:16;;;;;;;14.95;7.78;;;14.60;99.90;;;;;;4807287;29;20088;-81
2023/10/01 07:05:46;;;;;;;15.45;7.07;;;14.60;99.90;;;;;;4826140;29;20050;-81
2023/10/01 07:08:18;;;;;;;10.05;6.35;;;14.60;99.90;;;;;;4827275;29;20082;-80
2023/10/01 07:10:50;;;;;;;13.80;7.50;;;14.60;99.90;;;;;;4810450;29;20346;-81
2023/10/01 07:13:17;;;;;;;16.48;7.50;;;14.60;99.90;;;;;;4813950;29;20124;-80
2023/10/01 07:15:48;;;;;;;17.42;7.10;;;14.60;99.90;;;;;;4844809;29;20054;-80
2023/10/01 07:18:15;;;;;;;14.05;6.78;;;14.70;99.90;;;;;;4814036;29;20077;-81
2023/10/01 07:20:44;;;;;;;13.60;6.65;;;14.70;99.90;;;;;;4829920;29;20594;-81
2023/10/01 07:23:13;;;;;;;15.65;6.88;;;14.70;99.90;;;;;;4822197;29;20061;-81
2023/10/01 07:25:42;;;;;;;12.50;6.57;;;14.80;99.90;;;;;;4844594;29;20058;-81
2023/10/01 07:28:18;;;;;;;16.88;7.47;;;14.80;99.90;;;;;;4844622;29;20184;-81
2023/10/01 07:30:51;;;;;;;16.10;7.22;;;14.80;99.90;;;;;;4832570;29;20054;-80
2023/10/01 07:33:17;;;;;;;15.20;6.87;;;14.80;99.90;;;;;;4826369;29;20046;-79
2023/10/01 07:35:45;;;;;;;12.00;6.68;;;14.80;99.90;;;;;;4835155;29;20416;-79
2023/10/01 07:38:15;;;;;;;15.80;7.80;;;14.80;99.90;;;;;;4829058;29;20053;-79
2023/10/01 07:40:58;;;;;;;12.68;7.78;;;14.90;99.90;;;;;;4830447;29;20051;-79
2023/10/01 07:43:26;;;;;;;15.52;6.90;;;14.90;99.90;;;;;;4806489;29;20042;-82
2023/10/01 07:45:55;;;;;;;17.45;7.15;;;14.90;99.90;;;;;;4828479;29;20066;-79
2023/10/01 07:48:28;;;;;;;15.18;7.15;;;14.90;99.90;;;;;;4844312;29;20062;-78
2023/10/01 07:51:03;;;;;;;17.50;7.22;;;14.90;99.90;;;;;;4812655;29;20054;-80
2023/10/01 07:53:42;;;;;;;10.98;6.57;;;14.90;99.90;;;;;;4824545;29;20050;-79
2023/10/01 07:56:16;;;;;;;13.10;6.93;;;15.00;99.90;;;;;;4827795;29;20042;-79
2023/10/01 07:58:45;;;;;;;16.77;7.75;;;14.40;99.90;;;;;;4813041;29;20050;-80
2023/10/01 08:03:59;;;;;;;15.07;7.78;;;15.00;99.90;;;;;;4813794;29;20058;-79
2023/10/01 08:06:49;;;;;;;12.73;7.43;;;16.50;99.90;;;;;;4828769;29;20399;-79
2023/10/01 08:09:13;;;;;;;15.82;7.03;;;15.00;99.90;;;;;;4841539;29;20088;-79
2023/10/01 08:14:26;;;;;;;15.98;7.70;;;15.00;99.90;;;;;;4819785;29;20054;-79
2023/10/01 08:17:00;;;;;;;15.05;6.97;;;15.00;99.90;;;;;;4820506;29;20499;-79
2023/10/01 08:19:49;;;;;;;16.70;7.53;;;15.00;99.90;;;;;;4812033;29;20551;-82
2023/10/01 08:22:43;;;;;;;16.13;7.88;;;15.00;99.90;;;;;;4807881;29;20054;-80
2023/10/01 08:25:12;;;;;;;11.23;6.32;;;15.00;99.90;;;;;;4796907;29;20043;-79
2023/10/01 08:28:08;;;;;;;14.93;6.63;;;15.10;99.90;;;;;;4797031;29;20053;-81
2023/10/01 08:30:38;;;;;;;16.40;7.43;;;15.10;99.90;;;;;;4813435;29;20053;-78
2023/10/01 08:33:22;;;;;;;13.77;7.13;;;15.10;99.90;;;;;;4811056;29;20443;-79
2023/10/01 08:35:57;;;;;;;13.47;7.17;;;15.20;99.90;;;;;;4811191;29;20137;-81
2023/10/01 08:38:36;;;;;;;18.20;6.93;;;15.20;99.90;;;;;;4805851;29;20088;-78
2023/10/01 08:41:07;;;;;;;14.35;7.38;;;15.30;99.90;;;;;;4819038;29;20059;-80
2023/10/01 08:43:36;;;;;;;16.85;7.35;;;15.30;99.90;;;;;;4812239;29;20050;-79
2023/10/01 08:46:17;;;;;;;14.73;7.00;;;15.30;99.90;;;;;;4826674;29;20132;-79
2023/10/01 08:48:46;;;;;;;11.00;6.63;;;15.40;99.90;;;;;;4824280;29;20038;-79
2023/10/01 08:51:17;;;;;;;14.05;7.20;;;15.50;99.90;;;;;;4812527;29;20086;-78
2023/10/01 08:53:46;;;;;;;15.57;7.53;;;15.60;99.90;;;;;;4798071;29;20128;-78
2023/10/01 08:56:32;;;;;;;18.25;7.05;;;15.70;99.90;;;;;;4809865;29;20045;-78
2023/10/01 08:59:00;;;;;;;11.77;7.10;;;15.80;99.90;;;;;;4812112;29;20070;-79
2023/10/01 09:01:32;;;;;;;18.00;7.57;;;15.80;99.90;;;;;;4798171;29;20049;-79
2023/10/01 09:04:29;;;;;;;19.90;7.57;;;15.90;99.90;;;;;;4826229;29;20054;-79
2023/10/01 09:06:58;;;;;;;17.67;8.00;;;16.00;99.90;;;;;;4827107;29;20093;-78
2023/10/01 09:09:26;;;;;;;14.57;7.70;;;16.10;99.90;;;;;;4827327;29;20058;-79
2023/10/01 09:12:02;;;;;;;15.48;7.00;;;16.20;99.90;;;;;;4811909;29;20050;-79
2023/10/01 09:14:39;;;;;;;17.63;7.95;;;16.30;99.90;;;;;;4836999;29;20066;-79
2023/10/01 09:17:27;;;;;;;23.33;7.80;;;16.40;99.90;;;;;;4824971;29;20442;-78
2023/10/01 09:19:54;;;;;;;18.73;8.13;;;16.50;99.90;;;;;;4824059;29;20051;-78
2023/10/01 09:22:40;;;;;;;21.23;8.27;;;16.60;99.90;;;;;;4827431;29;20057;-78
2023/10/01 09:25:19;;;;;;;20.27;9.20;;;16.70;99.90;;;;;;4795158;29;20052;-79
2023/10/01 09:28:19;;;;;;;19.25;7.85;;;16.90;99.90;;;;;;4823902;29;20047;-78
2023/10/01 09:31:39;;;;;;;22.05;8.57;;;16.90;99.90;;;;;;4809855;29;20073;-79
2023/10/01 09:34:29;;;;;;;19.40;8.63;;;17.00;99.90;;;;;;4836743;29;20047;-80
2023/10/01 09:36:56;;;;;;;14.98;7.05;;;17.10;99.90;;;;;;4826783;29;20061;-79
2023/10/01 09:39:36;;;;;;;20.42;7.75;;;17.20;99.90;;;;;;4826636;29;20042;-80
2023/10/01 09:42:22;;;;;;;20.02;7.97;;;17.30;99.90;;;;;;4825849;29;20137;-79
2023/10/01 09:44:53;;;;;;;21.00;7.68;;;17.30;99.90;;;;;;4823048;29;20047;-78
2023/10/01 09:47:24;;;;;;;15.82;7.95;;;17.40;99.90;;;;;;4842527;29;20046;-80
2023/10/01 09:49:59;;;;;;;19.73;8.00;;;17.40;99.90;;;;;;4796187;29;20926;-79
2023/10/01 09:52:30;;;;;;;15.40;8.10;;;17.10;99.90;;;;;;4822957;29;20050;-79
2023/10/01 09:55:24;;;;;;;21.08;8.35;;;17.50;99.90;;;;;;4838724;29;20058;-80
2023/10/01 09:57:58;;;;;;;22.52;8.27;;;17.50;99.90;;;;;;4819175;29;20050;-80
2023/10/01 10:00:39;;;;;;;18.30;7.60;;;17.50;99.90;;;;;;4823169;29;20145;-79
2023/10/01 10:03:11;;;;;;;17.23;8.35;;;17.50;99.90;;;;;;4824017;29;20488;-79
2023/10/01 10:05:41;;;;;;;19.52;7.78;;;17.60;99.90;;;;;;4826202;29;20050;-78
2023/10/01 10:08:13;;;;;;;21.65;8.25;;;17.60;99.90;;;;;;4826696;29;20053;-79
2023/10/01 10:10:52;;;;;;;20.75;8.63;;;17.60;99.90;;;;;;4828679;29;20050;-79
2023/10/01 10:13:36;;;;;;;19.90;7.88;;;17.70;99.90;;;;;;4825853;29;20051;-82
2023/10/01 10:19:09;;;;;;;16.48;8.07;;;17.80;99.90;;;;;;4838354;29;20051;-79
2023/10/01 10:24:31;;;;;;;18.67;8.10;;;18.00;99.90;;;;;;4845830;29;20077;-80
2023/10/01 10:27:00;;;;;;;20.35;8.13;;;18.00;99.90;;;;;;4822534;29;20107;-80
2023/10/01 10:30:05;;;;;;;20.65;8.52;;;18.10;99.90;;;;;;4796544;29;20050;-81
2023/10/01 10:32:47;;;;;;;18.90;8.70;;;18.10;99.90;;;;;;4822733;29;20134;-78
2023/10/01 10:35:15;;;;;;;12.93;7.90;;;18.20;99.90;;;;;;4825995;29;20080;-81
2023/10/01 10:37:53;;;;;;;17.63;8.32;;;18.20;99.90;;;;;;4826193;29;20050;-80
2023/10/01 10:40:23;;;;;;;14.02;7.70;;;18.20;99.90;;;;;;4825391;29;20054;-79
2023/10/01 10:43:02;;;;;;;17.17;7.45;;;18.20;99.90;;;;;;4795050;29;20039;-81
2023/10/01 10:45:46;;;;;;;16.83;7.75;;;18.20;99.90;;;;;;4822997;29;20065;-79
2023/10/01 10:48:21;;;;;;;16.50;8.15;;;18.20;99.90;;;;;;4807540;29;20047;-79
2023/10/01 10:51:05;;;;;;;15.68;7.40;;;18.20;99.90;;;;;;4810928;29;20062;-80
2023/10/01 10:53:42;;;;;;;20.05;8.75;;;18.30;99.90;;;;;;4822729;29;20063;-80
2023/10/01 10:56:15;;;;;;;16.05;7.95;;;18.30;99.90;;;;;;4807929;29;20097;-79
2023/10/01 10:59:01;;;;;;;19.00;8.55;;;18.20;99.90;;;;;;4826533;29;20093;-79
2023/10/01 11:01:43;;;;;;;18.73;8.38;;;18.30;99.90;;;;;;4823047;29;20059;-80
2023/10/01 11:04:09;;;;;;;20.33;9.10;;;18.30;99.90;;;;;;4823721;29;20465;-80
2023/10/01 11:06:47;;;;;;;20.50;9.13;;;18.30;99.90;;;;;;4826117;29;20060;-79
2023/10/01 11:09:30;;;;;;;15.50;8.25;;;18.40;99.90;;;;;;4793697;29;20050;-79
2023/10/01 11:12:41;;;;;;;20.83;9.73;;;18.40;99.90;;;;;;4822335;29;20408;-81
2023/10/01 11:17:47;;;;;;;26.27;9.30;;;18.50;99.90;;;;;;4817765;29;20130;-81
2023/10/01 11:20:22;;;;;;;16.75;8.25;;;18.50;99.90;;;;;;4825664;29;20051;-79
2023/10/01 11:22:54;;;;;;;17.83;7.93;;;18.60;99.90;;;;;;4809327;29;20046;-79
2023/10/01 11:25:24;;;;;;;18.50;9.43;;;18.60;99.90;;;;;;4809685;29;20062;-80
2023/10/01 11:28:04;;;;;;;18.48;8.02;;;18.60;99.90;;;;;;4837782;29;20053;-80
2023/10/01 11:30:42;;;;;;;21.55;8.65;;;18.70;99.90;;;;;;4826133;29;20053;-80
2023/10/01 11:38:41;;;;;;;16.55;7.97;;;19.00;99.90;;;;;;4817764;29;20522;-80
2023/10/01 11:41:09;;;;;;;18.25;8.43;;;19.00;99.90;;;;;;4825850;29;20163;-83
2023/10/01 11:44:02;;;;;;;16.02;8.43;;;19.00;99.90;;;;;;4795370;29;20054;-80
2023/10/01 11:49:16;;;;;;;18.90;7.97;;;19.10;99.90;;;;;;4810820;29;20419;-80
2023/10/01 11:51:50;;;;;;;18.90;7.68;;;19.10;99.90;;;;;;4809530;29;20049;-79
2023/10/01 11:54:21;;;;;;;23.50;8.75;;;19.10;99.90;;;;;;4795271;29;20046;-79
2023/10/01 11:57:04;;;;;;;14.77;7.65;;;19.10;99.90;;;;;;4825165;29;20116;-82
2023/10/01 11:59:31;;;;;;;15.50;8.60;;;19.20;99.90;;;;;;4812382;29;20111;-82
2023/10/01 12:02:15;;;;;;;18.67;9.45;;;19.30;99.90;;;;;;4824366;29;20054;-81
2023/10/01 12:04:45;;;;;;;16.27;8.02;;;19.20;99.90;;;;;;4805114;29;20582;-80
2023/10/01 12:07:17;;;;;;;19.50;9.18;;;19.30;99.90;;;;;;4821921;29;20046;-81
2023/10/01 12:09:53;;;;;;;21.27;9.18;;;19.30;99.90;;;;;;4797763;29;20431;-80
2023/10/01 12:12:36;;;;;;;17.25;8.48;;;19.30;99.90;;;;;;4819461;29;20059;-79
2023/10/01 12:17:49;;;;;;;18.23;9.40;;;19.40;99.90;;;;;;4819873;29;20056;-80
2023/10/01 12:20:28;;;;;;;18.10;8.93;;;19.40;99.90;;;;;;4797740;29;20137;-80
2023/10/01 12:23:13;;;;;;;21.33;9.15;;;19.40;99.90;;;;;;4816848;29;20093;-78
2023/10/01 12:28:27;;;;;;;16.17;8.98;;;19.60;99.90;;;;;;4818826;29;20055;-79
2023/10/01 12:30:57;;;;;;;17.35;8.93;;;19.70;99.90;;;;;;4820241;29;20174;-78
2023/10/01 12:33:46;;;;;;;16.48;8.95;;;19.70;99.90;;;;;;4804211;29;20138;-79
2023/10/01 12:36:42;;;;;;;20.35;9.35;;;19.80;99.90;;;;;;4828741;29;20380;-79
2023/10/01 12:44:36;;;;;;;16.95;9.50;;;20.60;99.90;;;;;;4828981;29;20051;-78
2023/10/01 12:47:07;;;;;;;19.58;10.68;;;20.20;99.90;;;;;;4823438;29;20173;-79
2023/10/01 12:49:36;;;;;;;20.92;8.80;;;20.30;99.90;;;;;;4828026;29;20038;-77
2023/10/01 12:52:08;;;;;;;19.40;9.55;;;20.30;99.90;;;;;;4827911;29;20461;-77
2023/10/01 12:54:36;;;;;;;16.10;8.45;;;20.30;99.90;;;;;;4798143;29;20096;-79
2023/10/01 12:57:02;;;;;;;19.15;9.27;;;20.20;99.90;;;;;;4842261;29;20149;-82
2023/10/01 13:07:45;;;;;;;22.25;10.00;;;20.20;99.90;;;;;;4845809;29;20063;-81
2023/10/01 13:10:12;;;;;;;16.35;9.52;;;20.20;99.90;;;;;;4840279;29;20559;-81
2023/10/01 13:12:56;;;;;;;23.38;10.93;;;20.20;99.90;;;;;;4812379;29;20046;-82
2023/10/01 13:15:37;;;;;;;20.67;9.68;;;20.10;99.90;;;;;;4794425;29;20285;-82
2023/10/01 13:18:11;;;;;;;16.23;9.32;;;20.10;99.90;;;;;;4824610;29;20188;-81
2023/10/01 13:20:58;;;;;;;16.73;9.27;;;20.10;99.90;;;;;;4813311;29;20411;-82
2023/10/01 13:23:28;;;;;;;17.63;9.38;;;20.20;99.90;;;;;;4794166;29;20176;-82
2023/10/01 13:26:05;;;;;;;17.50;8.95;;;20.20;99.90;;;;;;4824730;29;20065;-81
2023/10/01 13:28:43;;;;;;;19.33;9.40;;;20.30;99.90;;;;;;4801474;29;20053;-82
2023/10/01 13:34:21;;;;;;;19.27;9.25;;;20.30;99.90;;;;;;4842038;29;20086;-82
2023/10/01 13:36:51;;;;;;;20.23;9.23;;;20.30;99.90;;;;;;4823046;29;20047;-82
2023/10/01 14:12:10;;;;;;;18.20;9.80;;;20.80;99.90;;;;;;4840798;29;19925;-82
2023/10/01 14:14:36;;;;;;;24.63;10.77;;;20.80;99.90;;;;;;4823386;29;20059;-82
2023/10/01 14:17:13;;;;;;;22.00;10.93;;;21.10;99.90;;;;;;4838330;29;20078;-81
2023/10/01 14:19:44;;;;;;;22.67;10.63;;;20.70;99.90;;;;;;4840905;29;20051;-81
2023/10/01 14:22:19;;;;;;;19.85;10.07;;;20.60;99.90;;;;;;4795912;29;20043;-81
2023/10/01 14:24:45;;;;;;;18.35;9.55;;;20.60;99.90;;;;;;4823543;29;20522;-81
2023/10/01 14:27:24;;;;;;;20.23;9.85;;;20.60;99.90;;;;;;4793304;29;20050;-81
2023/10/01 14:32:38;;;;;;;21.33;9.68;;;20.60;99.90;;;;;;4837648;29;20092;-81
2023/10/01 14:35:16;;;;;;;19.52;10.05;;;20.60;99.90;;;;;;4823095;29;20086;-81
2023/10/01 14:37:55;;;;;;;20.55;9.85;;;20.60;99.90;;;;;;4803753;29;20133;-81
2023/10/01 14:40:23;;;;;;;16.70;9.70;;;20.60;99.90;;;;;;4817800;29;20510;-80
2023/10/01 14:42:55;;;;;;;18.52;9.75;;;20.60;99.90;;;;;;4841092;29;20086;-81